createdAt,value
2023-03-31T00:12:10.917Z,10.13
2023-03-31T00:27:13.631Z,10.01
2023-03-31T00:42:16.217Z,9.69
2023-03-31T00:57:18.831Z,9.19
2023-03-31T01:12:22.820Z,8.75
2023-03-31T01:27:54.210Z,8.31
2023-03-31T01:43:11.499Z,7.78
2023-03-31T01:58:21.671Z,7.37
2023-03-31T02:13:27.844Z,7.03
2023-03-31T02:28:31.388Z,6.83
2023-03-31T02:43:34.003Z,6.73
2023-03-31T02:58:55.765Z,6.67
2023-03-31T03:14:17.191Z,6.77
2023-03-31T03:29:19.732Z,6.85
2023-03-31T03:44:22.288Z,6.79
2023-03-31T03:59:25.062Z,6.70
2023-03-31T04:14:27.571Z,6.54
2023-03-31T04:29:33.691Z,6.18
2023-03-31T04:44:36.591Z,6.01
2023-03-31T04:59:39.304Z,5.75
2023-03-31T05:14:47.075Z,6.16
2023-03-31T05:29:50.144Z,7.82
2023-03-31T05:44:52.728Z,9.43
2023-03-31T05:59:55.369Z,12.81
2023-03-31T06:14:57.903Z,15.00
2023-03-31T06:30:00.791Z,16.47
2023-03-31T06:45:03.701Z,15.88
2023-03-31T07:00:07.969Z,14.28
2023-03-31T07:15:10.895Z,15.66
2023-03-31T07:30:16.568Z,17.84
2023-03-31T07:45:21.411Z,15.92
2023-03-31T08:00:24.856Z,15.07
2023-03-31T08:15:28.109Z,14.28
2023-03-31T08:30:30.771Z,17.79
2023-03-31T08:45:36.548Z,19.47
2023-03-31T09:00:51.369Z,19.11
2023-03-31T09:16:15.721Z,19.00
2023-03-31T09:31:21.073Z,18.82
2023-03-31T09:46:31.108Z,20.00
2023-03-31T10:01:36.036Z,19.63
2023-03-31T10:16:57.572Z,18.43
2023-03-31T10:32:18.517Z,17.03
2023-03-31T10:47:24.458Z,16.63
2023-03-31T11:02:39.437Z,16.61
2023-03-31T11:17:54.841Z,16.64
2023-03-31T11:33:16.282Z,17.07
2023-03-31T11:48:33.471Z,19.28
2023-03-31T12:04:23.713Z,19.26
2023-03-31T12:19:36.601Z,18.22
2023-03-31T12:34:47.689Z,18.03
2023-03-31T12:50:16.359Z,17.09
2023-03-31T13:05:37.501Z,16.98
2023-03-31T13:20:42.107Z,17.21
2023-03-31T13:35:50.234Z,16.32
2023-03-31T13:51:23.285Z,15.41
2023-03-31T14:06:35.779Z,14.62
2023-03-31T14:21:43.176Z,14.41
2023-03-31T14:37:08.336Z,14.15
2023-03-31T14:52:18.537Z,13.64
2023-03-31T15:07:21.187Z,13.47
2023-03-31T15:22:26.082Z,13.31
2023-03-31T15:37:35.547Z,13.61
2023-03-31T15:52:46.908Z,13.44
2023-03-31T16:07:49.749Z,13.33
2023-03-31T16:22:58.702Z,13.03
2023-03-31T16:38:04.304Z,12.70
2023-03-31T16:53:07.189Z,12.36
2023-03-31T17:08:10.417Z,12.27
2023-03-31T17:23:13.789Z,12.20
2023-03-31T17:38:19.378Z,11.91
2023-03-31T17:53:22.273Z,11.57
2023-03-31T18:08:24.986Z,11.36
2023-03-31T18:23:27.836Z,11.21
2023-03-31T18:38:30.646Z,11.10
2023-03-31T18:53:34.513Z,11.16
2023-03-31T19:08:38.160Z,11.21
2023-03-31T19:23:40.978Z,11.00
2023-03-31T19:38:43.918Z,10.82
2023-03-31T19:53:46.713Z,10.63
2023-03-31T20:08:52.200Z,10.35
2023-03-31T20:23:56.386Z,10.02
2023-03-31T20:39:00.890Z,9.69
2023-03-31T20:54:04.928Z,9.55
2023-03-31T21:09:08.612Z,10.16
2023-03-31T21:24:12.455Z,10.19
2023-03-31T21:39:15.287Z,9.94
2023-03-31T21:54:18.206Z,9.72
2023-03-31T22:09:21.145Z,9.61
2023-03-31T22:24:23.836Z,9.43
2023-03-31T22:39:26.702Z,9.25
2023-03-31T22:54:29.236Z,9.07
2023-03-31T23:09:31.893Z,8.95
2023-03-31T23:24:34.558Z,8.88
2023-03-31T23:39:38.914Z,8.79
2023-03-31T23:54:42.218Z,8.95
